sensor_id;sensor_type;location;lat;lon;timestamp;temperature;humidity
11132;DHT22;5620;53.570;9.718;2023-06-26T00:00:31;22.50;99.90
11132;DHT22;5620;53.570;9.718;2023-06-26T00:02:56;22.50;99.90
11132;DHT22;5620;53.570;9.718;2023-06-26T00:05:23;22.50;99.90
11132;DHT22;5620;53.570;9.718;2023-06-26T00:07:49;22.50;99.90
11132;DHT22;5620;53.570;9.718;2023-06-26T00:10:15;22.50;99.90
11132;DHT22;5620;53.570;9.718;2023-06-26T00:12:44;22.50;99.90
11132;DHT22;5620;53.570;9.718;2023-06-26T00:15:10;22.50;99.90
11132;DHT22;5620;53.570;9.718;2023-06-26T00:17:36;22.50;99.90
11132;DHT22;5620;53.570;9.718;2023-06-26T00:20:02;22.50;99.90
11132;DHT22;5620;53.570;9.718;2023-06-26T00:22:30;22.50;99.90
11132;DHT22;5620;53.570;9.718;2023-06-26T00:24:56;22.50;99.90
11132;DHT22;5620;53.570;9.718;2023-06-26T00:27:23;22.50;99.90
11132;DHT22;5620;53.570;9.718;2023-06-26T00:29:50;22.50;99.90
11132;DHT22;5620;53.570;9.718;2023-06-26T00:32:16;22.40;99.90
11132;DHT22;5620;53.570;9.718;2023-06-26T00:34:42;22.40;99.90
11132;DHT22;5620;53.570;9.718;2023-06-26T00:37:08;22.40;99.90
11132;DHT22;5620;53.570;9.718;2023-06-26T00:39:34;22.40;99.90
11132;DHT22;5620;53.570;9.718;2023-06-26T00:42:00;22.40;99.90
11132;DHT22;5620;53.570;9.718;2023-06-26T00:44:30;22.40;99.90
11132;DHT22;5620;53.570;9.718;2023-06-26T00:46:59;22.50;99.90
11132;DHT22;5620;53.570;9.718;2023-06-26T00:49:26;22.50;99.90
11132;DHT22;5620;53.570;9.718;2023-06-26T00:51:54;22.50;99.90
11132;DHT22;5620;53.570;9.718;2023-06-26T00:54:20;22.40;99.90
11132;DHT22;5620;53.570;9.718;2023-06-26T00:56:46;22.40;99.90
11132;DHT22;5620;53.570;9.718;2023-06-26T00:59:12;22.40;99.90
11132;DHT22;5620;53.570;9.718;2023-06-26T01:01:38;22.40;99.90
11132;DHT22;5620;53.570;9.718;2023-06-26T01:04:04;22.30;99.90
11132;DHT22;5620;53.570;9.718;2023-06-26T01:06:31;22.40;99.90
11132;DHT22;5620;53.570;9.718;2023-06-26T01:08:59;22.30;99.90
11132;DHT22;5620;53.570;9.718;2023-06-26T01:11:25;22.30;99.90
11132;DHT22;5620;53.570;9.718;2023-06-26T01:13:51;22.30;99.90
11132;DHT22;5620;53.570;9.718;2023-06-26T01:16:28;22.30;99.90
11132;DHT22;5620;53.570;9.718;2023-06-26T01:18:56;22.20;99.90
11132;DHT22;5620;53.570;9.718;2023-06-26T01:21:23;22.20;99.90
11132;DHT22;5620;53.570;9.718;2023-06-26T01:24:12;22.20;99.90
11132;DHT22;5620;53.570;9.718;2023-06-26T01:26:42;22.10;99.90
11132;DHT22;5620;53.570;9.718;2023-06-26T01:29:10;22.10;99.90
11132;DHT22;5620;53.570;9.718;2023-06-26T01:31:39;22.10;99.90
11132;DHT22;5620;53.570;9.718;2023-06-26T01:34:06;22.10;99.90
11132;DHT22;5620;53.570;9.718;2023-06-26T01:36:33;22.10;99.90
11132;DHT22;5620;53.570;9.718;2023-06-26T01:38:58;22.10;99.90
11132;DHT22;5620;53.570;9.718;2023-06-26T01:41:24;22.10;99.90
11132;DHT22;5620;53.570;9.718;2023-06-26T01:47:00;22.00;99.90
11132;DHT22;5620;53.570;9.718;2023-06-26T01:57:57;21.90;99.90
11132;DHT22;5620;53.570;9.718;2023-06-26T02:00:25;21.90;99.90
11132;DHT22;5620;53.570;9.718;2023-06-26T02:02:52;21.90;99.90
11132;DHT22;5620;53.570;9.718;2023-06-26T02:05:18;21.90;99.90
11132;DHT22;5620;53.570;9.718;2023-06-26T02:07:46;21.90;99.90
11132;DHT22;5620;53.570;9.718;2023-06-26T02:10:13;21.90;99.90
11132;DHT22;5620;53.570;9.718;2023-06-26T02:12:39;21.80;99.90
11132;DHT22;5620;53.570;9.718;2023-06-26T02:15:06;21.80;99.90
11132;DHT22;5620;53.570;9.718;2023-06-26T02:17:33;21.80;99.90
11132;DHT22;5620;53.570;9.718;2023-06-26T02:20:03;21.80;99.90
11132;DHT22;5620;53.570;9.718;2023-06-26T02:22:29;21.80;99.90
11132;DHT22;5620;53.570;9.718;2023-06-26T02:24:56;21.80;99.90
11132;DHT22;5620;53.570;9.718;2023-06-26T02:27:21;21.80;99.90
11132;DHT22;5620;53.570;9.718;2023-06-26T02:29:47;21.80;99.90
11132;DHT22;5620;53.570;9.718;2023-06-26T02:32:12;21.80;99.90
11132;DHT22;5620;53.570;9.718;2023-06-26T02:34:38;21.80;99.90
11132;DHT22;5620;53.570;9.718;2023-06-26T02:37:03;21.70;99.90
11132;DHT22;5620;53.570;9.718;2023-06-26T02:39:30;21.80;99.90
11132;DHT22;5620;53.570;9.718;2023-06-26T02:41:56;21.70;99.90
11132;DHT22;5620;53.570;9.718;2023-06-26T02:44:23;21.70;99.90
11132;DHT22;5620;53.570;9.718;2023-06-26T02:46:49;21.70;99.90
11132;DHT22;5620;53.570;9.718;2023-06-26T02:49:16;21.60;99.90
11132;DHT22;5620;53.570;9.718;2023-06-26T02:51:42;21.60;99.90
11132;DHT22;5620;53.570;9.718;2023-06-26T02:54:07;21.60;99.90
11132;DHT22;5620;53.570;9.718;2023-06-26T02:56:34;21.60;1.00
11132;DHT22;5620;53.570;9.718;2023-06-26T02:59:02;21.60;1.00
11132;DHT22;5620;53.570;9.718;2023-06-26T03:01:28;21.60;1.00
11132;DHT22;5620;53.570;9.718;2023-06-26T03:03:55;21.60;1.00
11132;DHT22;5620;53.570;9.718;2023-06-26T03:06:20;21.60;1.00
11132;DHT22;5620;53.570;9.718;2023-06-26T03:08:47;21.60;1.00
11132;DHT22;5620;53.570;9.718;2023-06-26T03:11:14;21.50;1.00
11132;DHT22;5620;53.570;9.718;2023-06-26T03:13:41;21.50;1.00
11132;DHT22;5620;53.570;9.718;2023-06-26T03:16:07;21.50;1.00
11132;DHT22;5620;53.570;9.718;2023-06-26T03:18:32;21.50;1.00
11132;DHT22;5620;53.570;9.718;2023-06-26T03:20:59;21.50;1.00
11132;DHT22;5620;53.570;9.718;2023-06-26T03:23:25;21.50;1.00
11132;DHT22;5620;53.570;9.718;2023-06-26T03:25:53;21.60;1.00
11132;DHT22;5620;53.570;9.718;2023-06-26T03:28:20;21.60;1.00
11132;DHT22;5620;53.570;9.718;2023-06-26T03:30:48;21.60;1.00
11132;DHT22;5620;53.570;9.718;2023-06-26T03:33:14;21.60;1.00
11132;DHT22;5620;53.570;9.718;2023-06-26T03:35:41;21.60;1.00
11132;DHT22;5620;53.570;9.718;2023-06-26T03:38:06;21.60;1.00
11132;DHT22;5620;53.570;9.718;2023-06-26T03:40:34;21.60;1.00
11132;DHT22;5620;53.570;9.718;2023-06-26T03:43:01;21.70;1.00
11132;DHT22;5620;53.570;9.718;2023-06-26T03:45:28;21.70;1.00
11132;DHT22;5620;53.570;9.718;2023-06-26T03:47:54;21.70;1.00
11132;DHT22;5620;53.570;9.718;2023-06-26T03:50:21;21.70;1.00
11132;DHT22;5620;53.570;9.718;2023-06-26T03:52:51;21.70;4.60
11132;DHT22;5620;53.570;9.718;2023-06-26T03:55:17;21.70;12.80
11132;DHT22;5620;53.570;9.718;2023-06-26T03:57:43;21.80;19.10
11132;DHT22;5620;53.570;9.718;2023-06-26T04:00:12;21.80;31.60
11132;DHT22;5620;53.570;9.718;2023-06-26T04:02:38;21.80;45.40
11132;DHT22;5620;53.570;9.718;2023-06-26T04:05:04;21.80;44.10
11132;DHT22;5620;53.570;9.718;2023-06-26T04:07:31;21.80;41.50
11132;DHT22;5620;53.570;9.718;2023-06-26T04:09:58;21.90;40.60
11132;DHT22;5620;53.570;9.718;2023-06-26T04:12:28;21.90;30.90
11132;DHT22;5620;53.570;9.718;2023-06-26T04:14:54;21.90;11.00
11132;DHT22;5620;53.570;9.718;2023-06-26T04:17:22;22.00;1.00
11132;DHT22;5620;53.570;9.718;2023-06-26T04:19:49;22.00;1.00
11132;DHT22;5620;53.570;9.718;2023-06-26T04:22:18;22.10;1.00
11132;DHT22;5620;53.570;9.718;2023-06-26T04:24:45;22.10;1.00
11132;DHT22;5620;53.570;9.718;2023-06-26T04:27:15;22.10;1.00
11132;DHT22;5620;53.570;9.718;2023-06-26T04:29:42;22.10;1.00
11132;DHT22;5620;53.570;9.718;2023-06-26T04:32:09;22.20;1.00
11132;DHT22;5620;53.570;9.718;2023-06-26T04:34:36;22.20;1.00
11132;DHT22;5620;53.570;9.718;2023-06-26T04:37:02;22.30;1.00
11132;DHT22;5620;53.570;9.718;2023-06-26T04:39:31;22.30;1.00
11132;DHT22;5620;53.570;9.718;2023-06-26T04:41:56;22.40;1.00
11132;DHT22;5620;53.570;9.718;2023-06-26T04:44:22;22.40;1.00
11132;DHT22;5620;53.570;9.718;2023-06-26T04:46:52;22.50;1.00
11132;DHT22;5620;53.570;9.718;2023-06-26T04:49:17;22.50;1.00
11132;DHT22;5620;53.570;9.718;2023-06-26T04:51:45;22.60;1.00
11132;DHT22;5620;53.570;9.718;2023-06-26T04:54:11;22.60;1.00
11132;DHT22;5620;53.570;9.718;2023-06-26T04:56:37;22.70;1.00
11132;DHT22;5620;53.570;9.718;2023-06-26T04:59:04;22.80;1.00
11132;DHT22;5620;53.570;9.718;2023-06-26T05:01:32;22.80;1.00
11132;DHT22;5620;53.570;9.718;2023-06-26T05:03:59;22.90;1.00
11132;DHT22;5620;53.570;9.718;2023-06-26T05:06:27;23.00;1.00
11132;DHT22;5620;53.570;9.718;2023-06-26T05:08:52;23.00;1.00
11132;DHT22;5620;53.570;9.718;2023-06-26T05:11:18;23.10;1.00
11132;DHT22;5620;53.570;9.718;2023-06-26T05:13:44;23.20;1.00
11132;DHT22;5620;53.570;9.718;2023-06-26T05:16:10;23.20;99.90
11132;DHT22;5620;53.570;9.718;2023-06-26T05:18:36;23.30;99.90
11132;DHT22;5620;53.570;9.718;2023-06-26T05:21:03;23.30;99.90
11132;DHT22;5620;53.570;9.718;2023-06-26T05:23:31;23.40;99.90
11132;DHT22;5620;53.570;9.718;2023-06-26T05:26:01;23.50;99.90
11132;DHT22;5620;53.570;9.718;2023-06-26T05:28:28;23.60;99.90
11132;DHT22;5620;53.570;9.718;2023-06-26T05:30:55;23.70;99.90
11132;DHT22;5620;53.570;9.718;2023-06-26T05:33:25;23.70;99.90
11132;DHT22;5620;53.570;9.718;2023-06-26T05:35:52;23.80;99.90
11132;DHT22;5620;53.570;9.718;2023-06-26T05:38:20;23.90;99.90
11132;DHT22;5620;53.570;9.718;2023-06-26T05:40:49;23.90;99.90
11132;DHT22;5620;53.570;9.718;2023-06-26T05:43:15;24.00;99.90
11132;DHT22;5620;53.570;9.718;2023-06-26T05:45:40;24.10;99.90
11132;DHT22;5620;53.570;9.718;2023-06-26T05:48:07;24.20;99.90
11132;DHT22;5620;53.570;9.718;2023-06-26T05:50:33;24.30;99.90
11132;DHT22;5620;53.570;9.718;2023-06-26T05:52:59;24.40;99.90
11132;DHT22;5620;53.570;9.718;2023-06-26T05:55:25;24.40;99.90
11132;DHT22;5620;53.570;9.718;2023-06-26T05:57:51;24.50;99.90
11132;DHT22;5620;53.570;9.718;2023-06-26T06:00:18;24.50;99.90
11132;DHT22;5620;53.570;9.718;2023-06-26T06:02:43;24.60;99.90
11132;DHT22;5620;53.570;9.718;2023-06-26T06:05:10;24.70;99.90
11132;DHT22;5620;53.570;9.718;2023-06-26T06:07:37;24.70;99.90
11132;DHT22;5620;53.570;9.718;2023-06-26T06:10:04;24.90;97.30
11132;DHT22;5620;53.570;9.718;2023-06-26T06:12:30;24.90;92.40
11132;DHT22;5620;53.570;9.718;2023-06-26T06:14:58;25.10;83.50
11132;DHT22;5620;53.570;9.718;2023-06-26T06:17:25;25.20;72.00
11132;DHT22;5620;53.570;9.718;2023-06-26T06:19:52;25.40;42.60
11132;DHT22;5620;53.570;9.718;2023-06-26T06:22:19;25.50;19.50
11132;DHT22;5620;53.570;9.718;2023-06-26T06:24:44;25.60;2.90
11132;DHT22;5620;53.570;9.718;2023-06-26T06:27:10;25.80;1.00
11132;DHT22;5620;53.570;9.718;2023-06-26T06:29:36;25.90;1.00
11132;DHT22;5620;53.570;9.718;2023-06-26T06:32:01;26.00;1.00
11132;DHT22;5620;53.570;9.718;2023-06-26T06:34:27;26.00;1.00
11132;DHT22;5620;53.570;9.718;2023-06-26T06:36:54;26.00;1.00
11132;DHT22;5620;53.570;9.718;2023-06-26T06:39:21;25.90;1.00
11132;DHT22;5620;53.570;9.718;2023-06-26T06:41:48;25.90;1.00
11132;DHT22;5620;53.570;9.718;2023-06-26T06:44:15;25.90;1.00
11132;DHT22;5620;53.570;9.718;2023-06-26T06:46:42;25.80;1.00
11132;DHT22;5620;53.570;9.718;2023-06-26T06:49:08;25.90;1.00
11132;DHT22;5620;53.570;9.718;2023-06-26T06:51:34;25.90;1.00
11132;DHT22;5620;53.570;9.718;2023-06-26T06:54:02;25.90;1.00
11132;DHT22;5620;53.570;9.718;2023-06-26T06:56:30;26.00;1.00
11132;DHT22;5620;53.570;9.718;2023-06-26T06:58:56;26.00;1.00
11132;DHT22;5620;53.570;9.718;2023-06-26T07:01:23;26.10;1.00
11132;DHT22;5620;53.570;9.718;2023-06-26T07:03:49;26.20;1.00
11132;DHT22;5620;53.570;9.718;2023-06-26T07:06:15;26.30;1.00
11132;DHT22;5620;53.570;9.718;2023-06-26T07:08:41;26.30;1.00
11132;DHT22;5620;53.570;9.718;2023-06-26T07:11:07;26.40;1.00
11132;DHT22;5620;53.570;9.718;2023-06-26T07:13:33;26.50;1.00
11132;DHT22;5620;53.570;9.718;2023-06-26T07:15:58;26.60;1.00
11132;DHT22;5620;53.570;9.718;2023-06-26T07:18:27;26.70;1.00
11132;DHT22;5620;53.570;9.718;2023-06-26T07:20:52;26.80;1.00
11132;DHT22;5620;53.570;9.718;2023-06-26T07:23:18;26.90;1.00
11132;DHT22;5620;53.570;9.718;2023-06-26T07:25:44;27.30;1.00
11132;DHT22;5620;53.570;9.718;2023-06-26T07:28:13;27.70;1.00
11132;DHT22;5620;53.570;9.718;2023-06-26T07:30:40;28.10;1.00
11132;DHT22;5620;53.570;9.718;2023-06-26T07:33:07;28.50;1.00
11132;DHT22;5620;53.570;9.718;2023-06-26T07:35:37;28.80;1.00
11132;DHT22;5620;53.570;9.718;2023-06-26T07:38:03;29.10;1.00
11132;DHT22;5620;53.570;9.718;2023-06-26T07:40:29;29.30;1.00
11132;DHT22;5620;53.570;9.718;2023-06-26T07:42:55;29.50;1.00
11132;DHT22;5620;53.570;9.718;2023-06-26T07:45:21;29.20;1.00
11132;DHT22;5620;53.570;9.718;2023-06-26T07:47:48;28.90;1.00
11132;DHT22;5620;53.570;9.718;2023-06-26T07:50:14;28.50;1.00
11132;DHT22;5620;53.570;9.718;2023-06-26T07:52:42;28.30;1.00
11132;DHT22;5620;53.570;9.718;2023-06-26T07:55:09;28.10;1.00
11132;DHT22;5620;53.570;9.718;2023-06-26T07:57:37;27.90;1.00
11132;DHT22;5620;53.570;9.718;2023-06-26T08:00:03;27.90;1.00
11132;DHT22;5620;53.570;9.718;2023-06-26T08:02:31;28.00;1.00
11132;DHT22;5620;53.570;9.718;2023-06-26T08:04:58;28.10;1.00
11132;DHT22;5620;53.570;9.718;2023-06-26T08:07:23;28.10;1.00
11132;DHT22;5620;53.570;9.718;2023-06-26T08:09:49;28.10;1.00
11132;DHT22;5620;53.570;9.718;2023-06-26T08:12:15;28.00;1.00
11132;DHT22;5620;53.570;9.718;2023-06-26T08:14:41;28.00;1.00
11132;DHT22;5620;53.570;9.718;2023-06-26T08:17:08;27.90;1.00
11132;DHT22;5620;53.570;9.718;2023-06-26T08:19:33;27.80;1.00
11132;DHT22;5620;53.570;9.718;2023-06-26T08:21:59;27.80;1.00
11132;DHT22;5620;53.570;9.718;2023-06-26T08:24:24;27.80;1.00
11132;DHT22;5620;53.570;9.718;2023-06-26T08:26:50;27.80;1.00
11132;DHT22;5620;53.570;9.718;2023-06-26T08:29:15;27.80;1.00
11132;DHT22;5620;53.570;9.718;2023-06-26T08:31:42;28.00;1.00
11132;DHT22;5620;53.570;9.718;2023-06-26T08:34:09;28.00;1.00
11132;DHT22;5620;53.570;9.718;2023-06-26T08:36:35;28.00;1.00
11132;DHT22;5620;53.570;9.718;2023-06-26T08:39:00;28.00;1.00
11132;DHT22;5620;53.570;9.718;2023-06-26T08:41:26;28.20;1.00
11132;DHT22;5620;53.570;9.718;2023-06-26T08:43:53;28.40;1.00
11132;DHT22;5620;53.570;9.718;2023-06-26T08:46:20;28.70;1.00
11132;DHT22;5620;53.570;9.718;2023-06-26T08:49:00;29.00;1.00
11132;DHT22;5620;53.570;9.718;2023-06-26T08:51:28;29.50;1.00
11132;DHT22;5620;53.570;9.718;2023-06-26T08:54:12;29.90;1.00
11132;DHT22;5620;53.570;9.718;2023-06-26T08:56:42;30.10;1.00
11132;DHT22;5620;53.570;9.718;2023-06-26T08:59:11;30.40;1.00
11132;DHT22;5620;53.570;9.718;2023-06-26T09:01:39;30.60;1.00
11132;DHT22;5620;53.570;9.718;2023-06-26T09:04:05;30.90;1.00
11132;DHT22;5620;53.570;9.718;2023-06-26T09:06:33;30.90;1.00
11132;DHT22;5620;53.570;9.718;2023-06-26T09:08:59;30.90;1.00
11132;DHT22;5620;53.570;9.718;2023-06-26T09:11:26;30.70;1.00
11132;DHT22;5620;53.570;9.718;2023-06-26T09:13:52;30.50;1.00
11132;DHT22;5620;53.570;9.718;2023-06-26T09:16:25;30.40;1.00
11132;DHT22;5620;53.570;9.718;2023-06-26T09:18:52;30.60;1.00
11132;DHT22;5620;53.570;9.718;2023-06-26T09:21:18;30.60;1.00
11132;DHT22;5620;53.570;9.718;2023-06-26T09:23:43;30.70;1.00
11132;DHT22;5620;53.570;9.718;2023-06-26T09:26:11;30.30;1.00
11132;DHT22;5620;53.570;9.718;2023-06-26T09:28:37;29.60;1.00
11132;DHT22;5620;53.570;9.718;2023-06-26T09:31:07;29.10;1.00
11132;DHT22;5620;53.570;9.718;2023-06-26T09:33:37;28.60;1.00
11132;DHT22;5620;53.570;9.718;2023-06-26T09:36:19;28.10;1.00
11132;DHT22;5620;53.570;9.718;2023-06-26T09:38:45;27.70;1.00
11132;DHT22;5620;53.570;9.718;2023-06-26T09:41:15;27.30;1.00
11132;DHT22;5620;53.570;9.718;2023-06-26T09:44:01;26.90;1.00
11132;DHT22;5620;53.570;9.718;2023-06-26T09:46:30;26.40;1.00
11132;DHT22;5620;53.570;9.718;2023-06-26T09:51:52;25.90;1.00
11132;DHT22;5620;53.570;9.718;2023-06-26T09:54:23;25.60;1.00
11132;DHT22;5620;53.570;9.718;2023-06-26T09:56:50;24.80;1.00
11132;DHT22;5620;53.570;9.718;2023-06-26T09:59:18;23.60;1.00
11132;DHT22;5620;53.570;9.718;2023-06-26T10:01:45;22.70;1.00
11132;DHT22;5620;53.570;9.718;2023-06-26T10:04:14;21.90;99.90
11132;DHT22;5620;53.570;9.718;2023-06-26T10:06:46;21.50;35.40
11132;DHT22;5620;53.570;9.718;2023-06-26T10:09:12;21.10;1.00
11132;DHT22;5620;53.570;9.718;2023-06-26T10:12:03;20.90;99.90
11132;DHT22;5620;53.570;9.718;2023-06-26T10:14:36;20.70;1.00
11132;DHT22;5620;53.570;9.718;2023-06-26T10:17:04;20.70;1.00
11132;DHT22;5620;53.570;9.718;2023-06-26T10:19:33;20.50;99.90
11132;DHT22;5620;53.570;9.718;2023-06-26T10:22:02;20.40;1.00
11132;DHT22;5620;53.570;9.718;2023-06-26T10:24:31;20.40;1.00
11132;DHT22;5620;53.570;9.718;2023-06-26T10:27:21;20.40;99.90
11132;DHT22;5620;53.570;9.718;2023-06-26T10:29:56;20.30;99.90
11132;DHT22;5620;53.570;9.718;2023-06-26T10:32:25;20.40;1.00
11132;DHT22;5620;53.570;9.718;2023-06-26T10:34:54;20.60;1.00
11132;DHT22;5620;53.570;9.718;2023-06-26T10:37:20;21.20;1.00
11132;DHT22;5620;53.570;9.718;2023-06-26T10:40:04;21.60;1.00
11132;DHT22;5620;53.570;9.718;2023-06-26T10:42:37;22.10;99.90
11132;DHT22;5620;53.570;9.718;2023-06-26T10:45:16;22.40;99.90
11132;DHT22;5620;53.570;9.718;2023-06-26T10:47:46;22.60;99.90
11132;DHT22;5620;53.570;9.718;2023-06-26T10:50:31;22.90;1.00
11132;DHT22;5620;53.570;9.718;2023-06-26T10:56:06;23.30;99.90
11132;DHT22;5620;53.570;9.718;2023-06-26T10:58:50;22.90;99.90
11132;DHT22;5620;53.570;9.718;2023-06-26T11:01:39;22.90;99.90
11132;DHT22;5620;53.570;9.718;2023-06-26T11:04:07;23.20;99.90
11132;DHT22;5620;53.570;9.718;2023-06-26T11:06:34;23.20;99.90
11132;DHT22;5620;53.570;9.718;2023-06-26T11:09:13;23.10;99.90
11132;DHT22;5620;53.570;9.718;2023-06-26T11:14:18;24.00;99.90
11132;DHT22;5620;53.570;9.718;2023-06-26T11:16:45;24.30;31.80
11132;DHT22;5620;53.570;9.718;2023-06-26T11:19:13;24.30;1.00
11132;DHT22;5620;53.570;9.718;2023-06-26T11:21:39;24.30;15.50
11132;DHT22;5620;53.570;9.718;2023-06-26T11:24:09;25.20;1.00
11132;DHT22;5620;53.570;9.718;2023-06-26T11:26:41;27.10;7.50
11132;DHT22;5620;53.570;9.718;2023-06-26T11:29:08;27.00;1.00
11132;DHT22;5620;53.570;9.718;2023-06-26T11:31:40;27.30;1.00
11132;DHT22;5620;53.570;9.718;2023-06-26T11:34:11;29.20;1.00
11132;DHT22;5620;53.570;9.718;2023-06-26T11:36:42;31.10;99.90
11132;DHT22;5620;53.570;9.718;2023-06-26T11:39:09;32.70;75.20
11132;DHT22;5620;53.570;9.718;2023-06-26T11:41:37;32.70;1.00
11132;DHT22;5620;53.570;9.718;2023-06-26T11:44:09;31.30;1.00
11132;DHT22;5620;53.570;9.718;2023-06-26T11:46:40;29.80;1.00
11132;DHT22;5620;53.570;9.718;2023-06-26T11:49:07;28.90;1.00
11132;DHT22;5620;53.570;9.718;2023-06-26T11:51:33;28.50;1.00
11132;DHT22;5620;53.570;9.718;2023-06-26T11:54:01;29.40;1.00
11132;DHT22;5620;53.570;9.718;2023-06-26T11:56:27;31.10;1.00
11132;DHT22;5620;53.570;9.718;2023-06-26T11:59:02;32.60;1.00
11132;DHT22;5620;53.570;9.718;2023-06-26T12:01:43;34.00;99.90
11132;DHT22;5620;53.570;9.718;2023-06-26T12:04:12;35.00;99.90
11132;DHT22;5620;53.570;9.718;2023-06-26T12:06:43;35.50;99.90
11132;DHT22;5620;53.570;9.718;2023-06-26T12:09:11;36.30;99.90
11132;DHT22;5620;53.570;9.718;2023-06-26T12:11:41;37.50;99.90
11132;DHT22;5620;53.570;9.718;2023-06-26T12:14:08;37.70;99.90
11132;DHT22;5620;53.570;9.718;2023-06-26T12:16:35;37.30;99.90
11132;DHT22;5620;53.570;9.718;2023-06-26T12:19:07;36.80;99.90
11132;DHT22;5620;53.570;9.718;2023-06-26T12:21:45;37.30;99.90
11132;DHT22;5620;53.570;9.718;2023-06-26T12:24:19;37.60;99.90
11132;DHT22;5620;53.570;9.718;2023-06-26T12:26:49;38.10;99.90
11132;DHT22;5620;53.570;9.718;2023-06-26T12:29:16;37.70;99.90
11132;DHT22;5620;53.570;9.718;2023-06-26T12:31:48;37.60;99.90
11132;DHT22;5620;53.570;9.718;2023-06-26T12:34:19;37.90;99.90
11132;DHT22;5620;53.570;9.718;2023-06-26T12:36:50;38.20;99.90
11132;DHT22;5620;53.570;9.718;2023-06-26T12:39:17;37.40;99.90
11132;DHT22;5620;53.570;9.718;2023-06-26T12:41:47;37.40;99.90
11132;DHT22;5620;53.570;9.718;2023-06-26T12:44:21;38.50;99.90
11132;DHT22;5620;53.570;9.718;2023-06-26T12:46:54;39.40;99.90
11132;DHT22;5620;53.570;9.718;2023-06-26T12:49:28;39.20;99.90
11132;DHT22;5620;53.570;9.718;2023-06-26T12:51:55;39.00;99.90
11132;DHT22;5620;53.570;9.718;2023-06-26T12:54:23;38.90;99.90
11132;DHT22;5620;53.570;9.718;2023-06-26T12:56:48;38.90;99.90
11132;DHT22;5620;53.570;9.718;2023-06-26T12:59:14;38.50;99.90
11132;DHT22;5620;53.570;9.718;2023-06-26T13:01:39;38.90;99.90
11132;DHT22;5620;53.570;9.718;2023-06-26T13:04:05;39.50;99.90
11132;DHT22;5620;53.570;9.718;2023-06-26T13:06:31;40.20;99.90
11132;DHT22;5620;53.570;9.718;2023-06-26T13:08:59;40.90;99.90
11132;DHT22;5620;53.570;9.718;2023-06-26T13:11:25;41.50;99.90
11132;DHT22;5620;53.570;9.718;2023-06-26T13:13:52;41.60;99.90
11132;DHT22;5620;53.570;9.718;2023-06-26T13:16:18;42.50;99.90
11132;DHT22;5620;53.570;9.718;2023-06-26T13:18:44;42.90;99.90
11132;DHT22;5620;53.570;9.718;2023-06-26T13:21:11;42.70;99.90
11132;DHT22;5620;53.570;9.718;2023-06-26T13:23:37;42.00;99.90
11132;DHT22;5620;53.570;9.718;2023-06-26T13:26:04;42.00;99.90
11132;DHT22;5620;53.570;9.718;2023-06-26T13:28:33;41.40;99.90
11132;DHT22;5620;53.570;9.718;2023-06-26T13:31:03;40.50;99.90
11132;DHT22;5620;53.570;9.718;2023-06-26T13:33:30;39.40;99.90
11132;DHT22;5620;53.570;9.718;2023-06-26T13:35:56;38.50;99.90
11132;DHT22;5620;53.570;9.718;2023-06-26T13:38:23;38.30;99.90
11132;DHT22;5620;53.570;9.718;2023-06-26T13:40:53;38.10;99.90
11132;DHT22;5620;53.570;9.718;2023-06-26T13:43:21;37.20;99.90
11132;DHT22;5620;53.570;9.718;2023-06-26T13:45:47;36.40;99.90
11132;DHT22;5620;53.570;9.718;2023-06-26T13:48:12;37.60;99.90
11132;DHT22;5620;53.570;9.718;2023-06-26T13:50:39;38.40;99.90
11132;DHT22;5620;53.570;9.718;2023-06-26T13:53:05;39.70;99.90
11132;DHT22;5620;53.570;9.718;2023-06-26T13:55:30;39.00;99.90
11132;DHT22;5620;53.570;9.718;2023-06-26T13:57:56;37.60;99.90
11132;DHT22;5620;53.570;9.718;2023-06-26T14:00:22;36.10;99.90
11132;DHT22;5620;53.570;9.718;2023-06-26T14:02:48;35.30;99.90
11132;DHT22;5620;53.570;9.718;2023-06-26T14:05:14;34.50;99.90
11132;DHT22;5620;53.570;9.718;2023-06-26T14:07:40;33.80;99.90
11132;DHT22;5620;53.570;9.718;2023-06-26T14:10:08;33.20;99.90
11132;DHT22;5620;53.570;9.718;2023-06-26T14:12:34;32.80;99.90
11132;DHT22;5620;53.570;9.718;2023-06-26T14:15:01;33.60;99.90
11132;DHT22;5620;53.570;9.718;2023-06-26T14:17:27;34.70;99.90
11132;DHT22;5620;53.570;9.718;2023-06-26T14:19:56;35.30;99.90
11132;DHT22;5620;53.570;9.718;2023-06-26T14:22:21;36.10;99.90
11132;DHT22;5620;53.570;9.718;2023-06-26T14:24:48;37.50;99.90
11132;DHT22;5620;53.570;9.718;2023-06-26T14:27:16;38.70;99.90
11132;DHT22;5620;53.570;9.718;2023-06-26T14:29:41;39.90;99.90
11132;DHT22;5620;53.570;9.718;2023-06-26T14:32:07;40.30;99.90
11132;DHT22;5620;53.570;9.718;2023-06-26T14:34:34;39.40;99.90
11132;DHT22;5620;53.570;9.718;2023-06-26T14:37:00;37.60;99.90
11132;DHT22;5620;53.570;9.718;2023-06-26T14:39:26;36.20;99.90
11132;DHT22;5620;53.570;9.718;2023-06-26T14:41:53;34.70;99.90
11132;DHT22;5620;53.570;9.718;2023-06-26T14:44:20;33.20;99.90
11132;DHT22;5620;53.570;9.718;2023-06-26T14:46:49;32.50;99.90
11132;DHT22;5620;53.570;9.718;2023-06-26T14:49:15;31.80;99.90
11132;DHT22;5620;53.570;9.718;2023-06-26T14:51:41;31.40;99.90
11132;DHT22;5620;53.570;9.718;2023-06-26T14:54:09;31.60;1.00
11132;DHT22;5620;53.570;9.718;2023-06-26T14:56:35;31.20;1.00
11132;DHT22;5620;53.570;9.718;2023-06-26T14:59:01;30.50;1.00
11132;DHT22;5620;53.570;9.718;2023-06-26T15:01:29;29.80;1.00
11132;DHT22;5620;53.570;9.718;2023-06-26T15:03:56;29.70;1.00
11132;DHT22;5620;53.570;9.718;2023-06-26T15:06:23;29.80;1.00
11132;DHT22;5620;53.570;9.718;2023-06-26T15:08:49;30.20;1.00
11132;DHT22;5620;53.570;9.718;2023-06-26T15:11:14;30.30;1.00
11132;DHT22;5620;53.570;9.718;2023-06-26T15:13:41;30.80;1.00
11132;DHT22;5620;53.570;9.718;2023-06-26T15:16:08;32.10;1.00
11132;DHT22;5620;53.570;9.718;2023-06-26T15:18:33;32.90;1.00
11132;DHT22;5620;53.570;9.718;2023-06-26T15:21:00;32.90;1.00
11132;DHT22;5620;53.570;9.718;2023-06-26T15:23:29;31.60;1.00
11132;DHT22;5620;53.570;9.718;2023-06-26T15:25:55;30.20;1.00
11132;DHT22;5620;53.570;9.718;2023-06-26T15:28:21;29.20;1.00
11132;DHT22;5620;53.570;9.718;2023-06-26T15:30:48;28.50;1.00
11132;DHT22;5620;53.570;9.718;2023-06-26T15:33:14;28.10;1.00
11132;DHT22;5620;53.570;9.718;2023-06-26T15:35:40;27.70;1.00
11132;DHT22;5620;53.570;9.718;2023-06-26T15:38:05;27.30;1.00
11132;DHT22;5620;53.570;9.718;2023-06-26T15:40:31;27.30;1.00
11132;DHT22;5620;53.570;9.718;2023-06-26T15:42:57;28.20;1.00
11132;DHT22;5620;53.570;9.718;2023-06-26T15:45:23;29.40;1.00
11132;DHT22;5620;53.570;9.718;2023-06-26T15:47:49;30.80;1.00
11132;DHT22;5620;53.570;9.718;2023-06-26T15:50:14;32.50;1.00
11132;DHT22;5620;53.570;9.718;2023-06-26T15:52:41;32.40;1.00
11132;DHT22;5620;53.570;9.718;2023-06-26T15:55:11;32.00;1.00
11132;DHT22;5620;53.570;9.718;2023-06-26T15:57:39;31.00;1.00
11132;DHT22;5620;53.570;9.718;2023-06-26T16:00:06;30.80;1.00
11132;DHT22;5620;53.570;9.718;2023-06-26T16:02:32;30.90;1.00
11132;DHT22;5620;53.570;9.718;2023-06-26T16:04:58;30.80;1.00
11132;DHT22;5620;53.570;9.718;2023-06-26T16:07:23;30.50;1.00
11132;DHT22;5620;53.570;9.718;2023-06-26T16:09:49;30.90;1.00
11132;DHT22;5620;53.570;9.718;2023-06-26T16:12:16;30.80;1.00
11132;DHT22;5620;53.570;9.718;2023-06-26T16:14:44;30.60;1.00
11132;DHT22;5620;53.570;9.718;2023-06-26T16:17:12;30.10;1.00